Terminal Aerodrome Forecast
Issued by NWS

Home | Current Version | Previous Version | Text Only | Print | Product List | Glossary On
Versions: 1 2 3 4 5 6 7 8 9 10 11 12 13 14 15 16 17 18 19 20 21 22 23 24 25 26 27 28
000
FTUS43 KILX 240800 AAA
TAFDEC
TAF AMD
KDEC 240855Z 2409/2506 23010KT 1/2SM -SHRA FG OVC002
     FM241000 28015G25KT 4SM BR VCSH OVC005
     FM241500 28022G34KT 3SM -RASN BR OVC010
     FM241800 25020G32KT P6SM -SN OVC015
     FM242100 24016G26KT P6SM OVC015
     FM250200 25013KT P6SM OVC020=

USA.gov is the U.S. government's official web portal to all federal, state and local government web resources and services.